sensor_id;sensor_type;location;lat;lon;timestamp;P1;durP1;ratioP1;P2;durP2;ratioP2
11328;SDS011;5719;42.714;23.732;2023-07-22T00:02:14;9.43;;;4.47;;
11328;SDS011;5719;42.714;23.732;2023-07-22T00:04:41;6.45;;;4.75;;
11328;SDS011;5719;42.714;23.732;2023-07-22T00:07:08;10.45;;;4.70;;
11328;SDS011;5719;42.714;23.732;2023-07-22T00:09:37;11.82;;;4.40;;
11328;SDS011;5719;42.714;23.732;2023-07-22T00:12:06;9.07;;;4.43;;
11328;SDS011;5719;42.714;23.732;2023-07-22T00:14:35;11.63;;;4.40;;
11328;SDS011;5719;42.714;23.732;2023-07-22T00:17:05;5.45;;;4.32;;
11328;SDS011;5719;42.714;23.732;2023-07-22T00:19:32;13.15;;;4.75;;
11328;SDS011;5719;42.714;23.732;2023-07-22T00:22:00;10.85;;;4.57;;
11328;SDS011;5719;42.714;23.732;2023-07-22T00:24:26;10.15;;;5.25;;
11328;SDS011;5719;42.714;23.732;2023-07-22T00:26:54;5.78;;;4.20;;
11328;SDS011;5719;42.714;23.732;2023-07-22T00:29:20;8.10;;;4.55;;
11328;SDS011;5719;42.714;23.732;2023-07-22T00:31:49;12.25;;;4.85;;
11328;SDS011;5719;42.714;23.732;2023-07-22T00:34:16;8.65;;;4.57;;
11328;SDS011;5719;42.714;23.732;2023-07-22T00:36:43;11.32;;;4.70;;
11328;SDS011;5719;42.714;23.732;2023-07-22T00:39:11;12.35;;;4.88;;
11328;SDS011;5719;42.714;23.732;2023-07-22T00:41:39;8.95;;;4.47;;
11328;SDS011;5719;42.714;23.732;2023-07-22T00:44:07;8.43;;;4.10;;
11328;SDS011;5719;42.714;23.732;2023-07-22T00:46:34;6.90;;;4.45;;
11328;SDS011;5719;42.714;23.732;2023-07-22T00:49:02;6.85;;;4.68;;
11328;SDS011;5719;42.714;23.732;2023-07-22T00:51:32;9.18;;;5.38;;
11328;SDS011;5719;42.714;23.732;2023-07-22T00:53:58;6.63;;;4.20;;
11328;SDS011;5719;42.714;23.732;2023-07-22T00:56:25;13.68;;;4.82;;
11328;SDS011;5719;42.714;23.732;2023-07-22T00:58:52;8.07;;;4.53;;
11328;SDS011;5719;42.714;23.732;2023-07-22T01:01:19;8.85;;;4.93;;
11328;SDS011;5719;42.714;23.732;2023-07-22T01:03:46;7.95;;;4.18;;
11328;SDS011;5719;42.714;23.732;2023-07-22T01:06:15;12.63;;;4.82;;
11328;SDS011;5719;42.714;23.732;2023-07-22T01:08:43;12.50;;;4.82;;
11328;SDS011;5719;42.714;23.732;2023-07-22T01:11:10;8.77;;;4.93;;
11328;SDS011;5719;42.714;23.732;2023-07-22T01:13:38;9.43;;;4.85;;
11328;SDS011;5719;42.714;23.732;2023-07-22T01:16:05;8.48;;;5.00;;
11328;SDS011;5719;42.714;23.732;2023-07-22T01:18:32;8.30;;;5.25;;
11328;SDS011;5719;42.714;23.732;2023-07-22T01:20:59;9.35;;;4.88;;
11328;SDS011;5719;42.714;23.732;2023-07-22T01:23:28;10.40;;;4.57;;
11328;SDS011;5719;42.714;23.732;2023-07-22T01:25:54;6.45;;;5.03;;
11328;SDS011;5719;42.714;23.732;2023-07-22T01:28:22;8.27;;;4.40;;
11328;SDS011;5719;42.714;23.732;2023-07-22T01:30:49;7.50;;;4.53;;
11328;SDS011;5719;42.714;23.732;2023-07-22T01:33:16;10.13;;;4.88;;
11328;SDS011;5719;42.714;23.732;2023-07-22T01:35:43;7.35;;;4.80;;
11328;SDS011;5719;42.714;23.732;2023-07-22T01:38:13;7.13;;;4.68;;
11328;SDS011;5719;42.714;23.732;2023-07-22T01:40:41;11.73;;;5.00;;
11328;SDS011;5719;42.714;23.732;2023-07-22T01:43:08;5.95;;;4.85;;
11328;SDS011;5719;42.714;23.732;2023-07-22T01:45:35;11.77;;;5.18;;
11328;SDS011;5719;42.714;23.732;2023-07-22T01:48:03;12.48;;;5.15;;
11328;SDS011;5719;42.714;23.732;2023-07-22T01:50:31;10.43;;;4.78;;
11328;SDS011;5719;42.714;23.732;2023-07-22T01:52:58;10.60;;;5.15;;
11328;SDS011;5719;42.714;23.732;2023-07-22T01:55:25;14.60;;;5.35;;
11328;SDS011;5719;42.714;23.732;2023-07-22T01:57:54;7.30;;;4.68;;
11328;SDS011;5719;42.714;23.732;2023-07-22T02:00:21;5.70;;;4.75;;
11328;SDS011;5719;42.714;23.732;2023-07-22T02:02:48;10.98;;;5.32;;
11328;SDS011;5719;42.714;23.732;2023-07-22T02:05:14;8.05;;;4.97;;
11328;SDS011;5719;42.714;23.732;2023-07-22T02:07:41;8.38;;;4.65;;
11328;SDS011;5719;42.714;23.732;2023-07-22T02:10:09;9.43;;;5.10;;
11328;SDS011;5719;42.714;23.732;2023-07-22T02:12:36;6.82;;;4.78;;
11328;SDS011;5719;42.714;23.732;2023-07-22T02:15:05;10.50;;;5.13;;
11328;SDS011;5719;42.714;23.732;2023-07-22T02:17:33;8.98;;;5.78;;
11328;SDS011;5719;42.714;23.732;2023-07-22T02:20:00;8.23;;;5.13;;
11328;SDS011;5719;42.714;23.732;2023-07-22T02:22:26;13.25;;;5.30;;
11328;SDS011;5719;42.714;23.732;2023-07-22T02:24:53;8.43;;;4.95;;
11328;SDS011;5719;42.714;23.732;2023-07-22T02:27:20;7.75;;;4.82;;
11328;SDS011;5719;42.714;23.732;2023-07-22T02:29:47;8.20;;;5.03;;
11328;SDS011;5719;42.714;23.732;2023-07-22T02:32:15;10.50;;;4.47;;
11328;SDS011;5719;42.714;23.732;2023-07-22T02:34:42;6.88;;;4.70;;
11328;SDS011;5719;42.714;23.732;2023-07-22T02:37:09;7.43;;;4.70;;
11328;SDS011;5719;42.714;23.732;2023-07-22T02:39:36;8.60;;;5.35;;
11328;SDS011;5719;42.714;23.732;2023-07-22T02:42:03;12.32;;;5.20;;
11328;SDS011;5719;42.714;23.732;2023-07-22T02:44:30;6.95;;;5.18;;
11328;SDS011;5719;42.714;23.732;2023-07-22T02:46:57;6.82;;;5.25;;
11328;SDS011;5719;42.714;23.732;2023-07-22T02:49:25;10.90;;;5.88;;
11328;SDS011;5719;42.714;23.732;2023-07-22T02:51:52;9.32;;;5.40;;
11328;SDS011;5719;42.714;23.732;2023-07-22T02:54:19;7.45;;;5.47;;
11328;SDS011;5719;42.714;23.732;2023-07-22T02:56:46;12.63;;;5.28;;
11328;SDS011;5719;42.714;23.732;2023-07-22T02:59:13;9.05;;;5.65;;
11328;SDS011;5719;42.714;23.732;2023-07-22T03:01:40;9.70;;;5.75;;
11328;SDS011;5719;42.714;23.732;2023-07-22T03:04:07;9.60;;;5.10;;
11328;SDS011;5719;42.714;23.732;2023-07-22T03:06:36;8.70;;;5.45;;
11328;SDS011;5719;42.714;23.732;2023-07-22T03:09:02;9.65;;;5.63;;
11328;SDS011;5719;42.714;23.732;2023-07-22T03:11:30;7.25;;;5.53;;
11328;SDS011;5719;42.714;23.732;2023-07-22T03:13:56;13.32;;;5.60;;
11328;SDS011;5719;42.714;23.732;2023-07-22T03:16:25;6.60;;;4.90;;
11328;SDS011;5719;42.714;23.732;2023-07-22T03:18:52;14.65;;;5.82;;
11328;SDS011;5719;42.714;23.732;2023-07-22T03:21:19;8.65;;;5.55;;
11328;SDS011;5719;42.714;23.732;2023-07-22T03:23:47;8.82;;;6.10;;
11328;SDS011;5719;42.714;23.732;2023-07-22T03:26:14;8.48;;;5.60;;
11328;SDS011;5719;42.714;23.732;2023-07-22T03:28:41;10.70;;;5.95;;
11328;SDS011;5719;42.714;23.732;2023-07-22T03:31:08;7.88;;;5.78;;
11328;SDS011;5719;42.714;23.732;2023-07-22T03:33:34;8.48;;;5.97;;
11328;SDS011;5719;42.714;23.732;2023-07-22T03:36:01;12.73;;;6.32;;
11328;SDS011;5719;42.714;23.732;2023-07-22T03:38:29;9.07;;;6.07;;
11328;SDS011;5719;42.714;23.732;2023-07-22T03:40:57;10.20;;;6.45;;
11328;SDS011;5719;42.714;23.732;2023-07-22T03:43:24;11.05;;;5.75;;
11328;SDS011;5719;42.714;23.732;2023-07-22T03:45:51;10.40;;;5.85;;
11328;SDS011;5719;42.714;23.732;2023-07-22T03:48:18;6.85;;;5.07;;
11328;SDS011;5719;42.714;23.732;2023-07-22T03:50:45;6.75;;;5.07;;
11328;SDS011;5719;42.714;23.732;2023-07-22T03:53:12;9.80;;;5.20;;
11328;SDS011;5719;42.714;23.732;2023-07-22T03:55:38;10.55;;;5.10;;
11328;SDS011;5719;42.714;23.732;2023-07-22T03:58:07;19.00;;;5.60;;
11328;SDS011;5719;42.714;23.732;2023-07-22T04:00:34;9.80;;;5.13;;
11328;SDS011;5719;42.714;23.732;2023-07-22T04:03:01;12.20;;;5.70;;
11328;SDS011;5719;42.714;23.732;2023-07-22T04:05:28;11.73;;;5.82;;
11328;SDS011;5719;42.714;23.732;2023-07-22T04:07:55;8.00;;;5.28;;
11328;SDS011;5719;42.714;23.732;2023-07-22T04:10:22;8.18;;;5.65;;
11328;SDS011;5719;42.714;23.732;2023-07-22T04:12:49;9.75;;;6.28;;
11328;SDS011;5719;42.714;23.732;2023-07-22T04:15:17;20.77;;;6.15;;
11328;SDS011;5719;42.714;23.732;2023-07-22T04:17:44;22.85;;;6.85;;
11328;SDS011;5719;42.714;23.732;2023-07-22T04:20:12;41.92;;;7.78;;
11328;SDS011;5719;42.714;23.732;2023-07-22T04:22:38;23.02;;;6.60;;
11328;SDS011;5719;42.714;23.732;2023-07-22T04:25:06;12.60;;;5.70;;
11328;SDS011;5719;42.714;23.732;2023-07-22T04:27:34;13.07;;;5.65;;
11328;SDS011;5719;42.714;23.732;2023-07-22T04:30:01;19.05;;;6.07;;
11328;SDS011;5719;42.714;23.732;2023-07-22T04:32:29;12.35;;;5.88;;
11328;SDS011;5719;42.714;23.732;2023-07-22T04:34:56;9.40;;;5.22;;
11328;SDS011;5719;42.714;23.732;2023-07-22T04:37:23;13.02;;;5.60;;
11328;SDS011;5719;42.714;23.732;2023-07-22T04:39:50;7.15;;;5.50;;
11328;SDS011;5719;42.714;23.732;2023-07-22T04:42:17;9.27;;;5.53;;
11328;SDS011;5719;42.714;23.732;2023-07-22T04:44:44;7.85;;;5.45;;
11328;SDS011;5719;42.714;23.732;2023-07-22T04:47:11;12.50;;;5.25;;
11328;SDS011;5719;42.714;23.732;2023-07-22T04:49:40;6.40;;;5.80;;
11328;SDS011;5719;42.714;23.732;2023-07-22T04:52:07;8.48;;;5.55;;
11328;SDS011;5719;42.714;23.732;2023-07-22T04:54:34;11.75;;;5.93;;
11328;SDS011;5719;42.714;23.732;2023-07-22T04:57:01;8.68;;;5.45;;
11328;SDS011;5719;42.714;23.732;2023-07-22T04:59:28;9.38;;;5.88;;
11328;SDS011;5719;42.714;23.732;2023-07-22T05:01:55;13.10;;;5.88;;
11328;SDS011;5719;42.714;23.732;2023-07-22T05:04:22;17.00;;;5.80;;
11328;SDS011;5719;42.714;23.732;2023-07-22T05:06:50;10.80;;;6.10;;
11328;SDS011;5719;42.714;23.732;2023-07-22T05:09:17;13.68;;;5.70;;
11328;SDS011;5719;42.714;23.732;2023-07-22T05:11:44;10.80;;;5.53;;
11328;SDS011;5719;42.714;23.732;2023-07-22T05:14:11;15.43;;;5.50;;
11328;SDS011;5719;42.714;23.732;2023-07-22T05:16:38;14.48;;;5.70;;
11328;SDS011;5719;42.714;23.732;2023-07-22T05:19:05;10.15;;;5.28;;
11328;SDS011;5719;42.714;23.732;2023-07-22T05:21:33;9.90;;;5.30;;
11328;SDS011;5719;42.714;23.732;2023-07-22T05:24:01;9.32;;;5.00;;
11328;SDS011;5719;42.714;23.732;2023-07-22T05:26:29;9.75;;;4.95;;
11328;SDS011;5719;42.714;23.732;2023-07-22T05:28:56;14.50;;;5.45;;
11328;SDS011;5719;42.714;23.732;2023-07-22T05:31:23;8.60;;;5.00;;
11328;SDS011;5719;42.714;23.732;2023-07-22T05:33:50;7.72;;;4.82;;
11328;SDS011;5719;42.714;23.732;2023-07-22T05:36:18;6.25;;;4.95;;
11328;SDS011;5719;42.714;23.732;2023-07-22T05:38:45;12.88;;;4.70;;
11328;SDS011;5719;42.714;23.732;2023-07-22T05:41:13;11.48;;;4.57;;
11328;SDS011;5719;42.714;23.732;2023-07-22T05:43:40;12.02;;;5.18;;
11328;SDS011;5719;42.714;23.732;2023-07-22T05:46:07;9.18;;;5.43;;
11328;SDS011;5719;42.714;23.732;2023-07-22T05:48:34;12.88;;;5.00;;
11328;SDS011;5719;42.714;23.732;2023-07-22T05:51:01;12.02;;;4.85;;
11328;SDS011;5719;42.714;23.732;2023-07-22T05:53:32;8.02;;;4.60;;
11328;SDS011;5719;42.714;23.732;2023-07-22T05:55:59;12.15;;;4.82;;
11328;SDS011;5719;42.714;23.732;2023-07-22T05:58:27;8.10;;;4.68;;
11328;SDS011;5719;42.714;23.732;2023-07-22T06:00:54;9.45;;;5.00;;
11328;SDS011;5719;42.714;23.732;2023-07-22T06:03:21;14.00;;;4.85;;
11328;SDS011;5719;42.714;23.732;2023-07-22T06:05:48;11.68;;;5.40;;
11328;SDS011;5719;42.714;23.732;2023-07-22T06:08:15;8.60;;;4.85;;
11328;SDS011;5719;42.714;23.732;2023-07-22T06:10:42;8.30;;;4.22;;
11328;SDS011;5719;42.714;23.732;2023-07-22T06:13:09;12.40;;;4.35;;
11328;SDS011;5719;42.714;23.732;2023-07-22T06:15:37;22.08;;;4.93;;
11328;SDS011;5719;42.714;23.732;2023-07-22T06:18:04;9.98;;;5.55;;
11328;SDS011;5719;42.714;23.732;2023-07-22T06:20:34;8.48;;;4.97;;
11328;SDS011;5719;42.714;23.732;2023-07-22T06:23:01;8.73;;;4.25;;
11328;SDS011;5719;42.714;23.732;2023-07-22T06:25:28;6.95;;;4.88;;
11328;SDS011;5719;42.714;23.732;2023-07-22T06:27:55;11.88;;;5.22;;
11328;SDS011;5719;42.714;23.732;2023-07-22T06:30:22;7.50;;;4.85;;
11328;SDS011;5719;42.714;23.732;2023-07-22T06:32:51;11.48;;;4.97;;
11328;SDS011;5719;42.714;23.732;2023-07-22T06:35:17;9.77;;;4.55;;
11328;SDS011;5719;42.714;23.732;2023-07-22T06:37:44;8.00;;;4.63;;
11328;SDS011;5719;42.714;23.732;2023-07-22T06:40:11;18.38;;;5.20;;
11328;SDS011;5719;42.714;23.732;2023-07-22T06:42:38;8.52;;;4.65;;
11328;SDS011;5719;42.714;23.732;2023-07-22T06:45:06;21.10;;;5.43;;
11328;SDS011;5719;42.714;23.732;2023-07-22T06:47:33;11.38;;;4.57;;
11328;SDS011;5719;42.714;23.732;2023-07-22T06:50:03;11.55;;;4.80;;
11328;SDS011;5719;42.714;23.732;2023-07-22T06:52:30;7.82;;;4.40;;
11328;SDS011;5719;42.714;23.732;2023-07-22T06:54:57;8.50;;;5.28;;
11328;SDS011;5719;42.714;23.732;2023-07-22T06:57:24;9.35;;;5.03;;
11328;SDS011;5719;42.714;23.732;2023-07-22T06:59:53;8.48;;;4.80;;
11328;SDS011;5719;42.714;23.732;2023-07-22T07:02:20;9.80;;;4.35;;
11328;SDS011;5719;42.714;23.732;2023-07-22T07:04:47;8.02;;;4.85;;
11328;SDS011;5719;42.714;23.732;2023-07-22T07:07:16;13.55;;;4.80;;
11328;SDS011;5719;42.714;23.732;2023-07-22T07:09:43;13.55;;;4.70;;
11328;SDS011;5719;42.714;23.732;2023-07-22T07:12:10;15.95;;;4.85;;
11328;SDS011;5719;42.714;23.732;2023-07-22T07:14:37;23.58;;;5.28;;
11328;SDS011;5719;42.714;23.732;2023-07-22T07:17:04;6.78;;;4.30;;
11328;SDS011;5719;42.714;23.732;2023-07-22T07:19:31;10.48;;;5.18;;
11328;SDS011;5719;42.714;23.732;2023-07-22T07:21:58;9.13;;;4.90;;
11328;SDS011;5719;42.714;23.732;2023-07-22T07:24:26;14.48;;;5.72;;
11328;SDS011;5719;42.714;23.732;2023-07-22T07:26:53;13.98;;;4.80;;
11328;SDS011;5719;42.714;23.732;2023-07-22T07:29:20;13.82;;;4.93;;
11328;SDS011;5719;42.714;23.732;2023-07-22T07:31:47;13.20;;;4.85;;
11328;SDS011;5719;42.714;23.732;2023-07-22T07:34:14;11.10;;;4.93;;
11328;SDS011;5719;42.714;23.732;2023-07-22T07:36:41;10.90;;;4.70;;
11328;SDS011;5719;42.714;23.732;2023-07-22T07:39:08;13.77;;;5.45;;
11328;SDS011;5719;42.714;23.732;2023-07-22T07:41:36;8.70;;;4.88;;
11328;SDS011;5719;42.714;23.732;2023-07-22T07:44:04;14.82;;;4.80;;
11328;SDS011;5719;42.714;23.732;2023-07-22T07:46:31;8.50;;;4.97;;
11328;SDS011;5719;42.714;23.732;2023-07-22T07:48:59;10.02;;;4.90;;
11328;SDS011;5719;42.714;23.732;2023-07-22T07:51:28;15.52;;;5.00;;
11328;SDS011;5719;42.714;23.732;2023-07-22T07:53:56;11.52;;;5.30;;
11328;SDS011;5719;42.714;23.732;2023-07-22T07:56:24;10.48;;;5.30;;
11328;SDS011;5719;42.714;23.732;2023-07-22T07:58:53;17.85;;;5.32;;
11328;SDS011;5719;42.714;23.732;2023-07-22T08:01:20;11.60;;;5.10;;
11328;SDS011;5719;42.714;23.732;2023-07-22T08:03:47;8.88;;;5.05;;
11328;SDS011;5719;42.714;23.732;2023-07-22T08:06:14;12.80;;;4.85;;
11328;SDS011;5719;42.714;23.732;2023-07-22T08:08:41;9.48;;;4.40;;
11328;SDS011;5719;42.714;23.732;2023-07-22T08:11:08;14.77;;;4.55;;
11328;SDS011;5719;42.714;23.732;2023-07-22T08:13:36;13.52;;;4.97;;
11328;SDS011;5719;42.714;23.732;2023-07-22T08:16:05;21.60;;;5.50;;
11328;SDS011;5719;42.714;23.732;2023-07-22T08:18:34;16.40;;;5.95;;
11328;SDS011;5719;42.714;23.732;2023-07-22T08:21:02;11.98;;;5.00;;
11328;SDS011;5719;42.714;23.732;2023-07-22T08:23:31;8.52;;;4.47;;
11328;SDS011;5719;42.714;23.732;2023-07-22T08:25:58;13.75;;;4.97;;
11328;SDS011;5719;42.714;23.732;2023-07-22T08:28:25;12.88;;;5.00;;
11328;SDS011;5719;42.714;23.732;2023-07-22T08:30:53;17.15;;;5.13;;
11328;SDS011;5719;42.714;23.732;2023-07-22T08:33:23;15.13;;;4.90;;
11328;SDS011;5719;42.714;23.732;2023-07-22T08:35:50;9.57;;;4.57;;
11328;SDS011;5719;42.714;23.732;2023-07-22T08:38:17;17.45;;;5.40;;
11328;SDS011;5719;42.714;23.732;2023-07-22T08:40:44;12.25;;;5.00;;
11328;SDS011;5719;42.714;23.732;2023-07-22T08:43:15;11.65;;;4.88;;
11328;SDS011;5719;42.714;23.732;2023-07-22T08:45:44;8.32;;;4.40;;
11328;SDS011;5719;42.714;23.732;2023-07-22T08:48:14;9.00;;;4.75;;
11328;SDS011;5719;42.714;23.732;2023-07-22T08:50:45;12.05;;;4.90;;
11328;SDS011;5719;42.714;23.732;2023-07-22T08:53:15;10.52;;;5.25;;
11328;SDS011;5719;42.714;23.732;2023-07-22T08:55:42;12.45;;;5.22;;
11328;SDS011;5719;42.714;23.732;2023-07-22T08:58:10;13.50;;;5.50;;
11328;SDS011;5719;42.714;23.732;2023-07-22T09:00:38;9.45;;;4.70;;
11328;SDS011;5719;42.714;23.732;2023-07-22T09:03:06;13.20;;;5.10;;
11328;SDS011;5719;42.714;23.732;2023-07-22T09:05:33;12.00;;;5.00;;
11328;SDS011;5719;42.714;23.732;2023-07-22T09:08:03;18.63;;;5.38;;
11328;SDS011;5719;42.714;23.732;2023-07-22T09:10:33;11.60;;;4.80;;
11328;SDS011;5719;42.714;23.732;2023-07-22T09:13:02;13.45;;;5.13;;
11328;SDS011;5719;42.714;23.732;2023-07-22T09:15:31;17.73;;;5.55;;
11328;SDS011;5719;42.714;23.732;2023-07-22T09:18:01;15.88;;;5.15;;
11328;SDS011;5719;42.714;23.732;2023-07-22T09:20:28;15.90;;;5.68;;
11328;SDS011;5719;42.714;23.732;2023-07-22T09:22:55;14.63;;;4.82;;
11328;SDS011;5719;42.714;23.732;2023-07-22T09:25:24;13.88;;;5.50;;
11328;SDS011;5719;42.714;23.732;2023-07-22T09:27:53;13.38;;;5.20;;
11328;SDS011;5719;42.714;23.732;2023-07-22T09:30:22;21.00;;;4.95;;
11328;SDS011;5719;42.714;23.732;2023-07-22T09:32:51;17.83;;;4.90;;
11328;SDS011;5719;42.714;23.732;2023-07-22T09:35:19;12.20;;;5.30;;
11328;SDS011;5719;42.714;23.732;2023-07-22T09:37:47;19.85;;;5.45;;
11328;SDS011;5719;42.714;23.732;2023-07-22T09:40:17;19.25;;;5.68;;
11328;SDS011;5719;42.714;23.732;2023-07-22T09:42:48;11.38;;;5.10;;
11328;SDS011;5719;42.714;23.732;2023-07-22T09:45:17;12.73;;;5.40;;
11328;SDS011;5719;42.714;23.732;2023-07-22T09:47:45;19.77;;;5.50;;
11328;SDS011;5719;42.714;23.732;2023-07-22T09:50:16;14.95;;;5.57;;
11328;SDS011;5719;42.714;23.732;2023-07-22T09:52:45;15.55;;;4.90;;
11328;SDS011;5719;42.714;23.732;2023-07-22T09:55:17;19.75;;;5.30;;
11328;SDS011;5719;42.714;23.732;2023-07-22T09:57:46;13.98;;;5.72;;
11328;SDS011;5719;42.714;23.732;2023-07-22T10:00:16;17.80;;;5.30;;
11328;SDS011;5719;42.714;23.732;2023-07-22T10:02:45;17.13;;;6.15;;
11328;SDS011;5719;42.714;23.732;2023-07-22T10:05:15;19.48;;;4.85;;
11328;SDS011;5719;42.714;23.732;2023-07-22T10:07:44;13.55;;;5.05;;
11328;SDS011;5719;42.714;23.732;2023-07-22T10:10:13;18.88;;;5.43;;
11328;SDS011;5719;42.714;23.732;2023-07-22T10:12:43;15.45;;;5.75;;
11328;SDS011;5719;42.714;23.732;2023-07-22T10:15:12;21.50;;;5.32;;
11328;SDS011;5719;42.714;23.732;2023-07-22T10:17:41;16.65;;;5.40;;
11328;SDS011;5719;42.714;23.732;2023-07-22T10:20:09;17.20;;;5.63;;
11328;SDS011;5719;42.714;23.732;2023-07-22T10:22:40;17.83;;;5.35;;
11328;SDS011;5719;42.714;23.732;2023-07-22T10:25:10;23.42;;;6.03;;
11328;SDS011;5719;42.714;23.732;2023-07-22T10:27:38;12.95;;;4.90;;
11328;SDS011;5719;42.714;23.732;2023-07-22T10:30:07;24.10;;;5.65;;
11328;SDS011;5719;42.714;23.732;2023-07-22T10:32:39;18.45;;;5.60;;
11328;SDS011;5719;42.714;23.732;2023-07-22T10:35:11;15.95;;;5.20;;
11328;SDS011;5719;42.714;23.732;2023-07-22T10:37:39;24.02;;;5.68;;
11328;SDS011;5719;42.714;23.732;2023-07-22T10:40:17;17.58;;;5.47;;
11328;SDS011;5719;42.714;23.732;2023-07-22T10:42:56;22.58;;;6.15;;
11328;SDS011;5719;42.714;23.732;2023-07-22T10:45:24;23.33;;;5.40;;
11328;SDS011;5719;42.714;23.732;2023-07-22T10:48:05;24.08;;;6.07;;
11328;SDS011;5719;42.714;23.732;2023-07-22T10:50:42;17.35;;;5.45;;
11328;SDS011;5719;42.714;23.732;2023-07-22T10:53:12;25.20;;;6.22;;
11328;SDS011;5719;42.714;23.732;2023-07-22T10:58:29;21.48;;;5.82;;
11328;SDS011;5719;42.714;23.732;2023-07-22T11:00:56;26.05;;;6.40;;
11328;SDS011;5719;42.714;23.732;2023-07-22T11:04:11;39.30;;;6.05;;
11328;SDS011;5719;42.714;23.732;2023-07-22T11:06:52;15.55;;;5.45;;
11328;SDS011;5719;42.714;23.732;2023-07-22T11:09:36;28.70;;;6.00;;
11328;SDS011;5719;42.714;23.732;2023-07-22T11:12:05;19.25;;;6.28;;
11328;SDS011;5719;42.714;23.732;2023-07-22T11:14:38;23.60;;;6.55;;
11328;SDS011;5719;42.714;23.732;2023-07-22T11:17:07;23.65;;;5.90;;
11328;SDS011;5719;42.714;23.732;2023-07-22T11:19:37;20.52;;;6.07;;
11328;SDS011;5719;42.714;23.732;2023-07-22T11:22:05;34.03;;;6.00;;
11328;SDS011;5719;42.714;23.732;2023-07-22T11:24:32;24.63;;;5.93;;
11328;SDS011;5719;42.714;23.732;2023-07-22T11:27:02;33.50;;;6.03;;
11328;SDS011;5719;42.714;23.732;2023-07-22T11:29:31;37.88;;;6.53;;
11328;SDS011;5719;42.714;23.732;2023-07-22T11:31:58;28.15;;;6.13;;
11328;SDS011;5719;42.714;23.732;2023-07-22T11:34:25;28.95;;;6.40;;
11328;SDS011;5719;42.714;23.732;2023-07-22T11:36:54;32.47;;;5.95;;
11328;SDS011;5719;42.714;23.732;2023-07-22T11:39:24;27.30;;;6.60;;
11328;SDS011;5719;42.714;23.732;2023-07-22T11:41:52;35.17;;;6.30;;
11328;SDS011;5719;42.714;23.732;2023-07-22T11:44:20;28.73;;;6.88;;
11328;SDS011;5719;42.714;23.732;2023-07-22T11:46:49;35.65;;;6.47;;
11328;SDS011;5719;42.714;23.732;2023-07-22T11:49:22;25.65;;;7.03;;
11328;SDS011;5719;42.714;23.732;2023-07-22T11:51:58;25.50;;;6.38;;
11328;SDS011;5719;42.714;23.732;2023-07-22T11:54:26;23.98;;;6.40;;
11328;SDS011;5719;42.714;23.732;2023-07-22T11:56:54;25.00;;;6.20;;
11328;SDS011;5719;42.714;23.732;2023-07-22T11:59:34;28.63;;;7.30;;
11328;SDS011;5719;42.714;23.732;2023-07-22T12:02:03;35.47;;;6.72;;
11328;SDS011;5719;42.714;23.732;2023-07-22T12:04:31;30.23;;;6.15;;
11328;SDS011;5719;42.714;23.732;2023-07-22T12:07:00;27.42;;;6.68;;
11328;SDS011;5719;42.714;23.732;2023-07-22T12:09:29;31.77;;;6.72;;
11328;SDS011;5719;42.714;23.732;2023-07-22T12:11:56;25.63;;;6.28;;
11328;SDS011;5719;42.714;23.732;2023-07-22T12:14:31;28.40;;;6.43;;
11328;SDS011;5719;42.714;23.732;2023-07-22T12:17:00;27.42;;;5.88;;
11328;SDS011;5719;42.714;23.732;2023-07-22T12:19:27;29.02;;;6.45;;
11328;SDS011;5719;42.714;23.732;2023-07-22T12:21:54;31.27;;;6.78;;
11328;SDS011;5719;42.714;23.732;2023-07-22T12:24:22;32.47;;;6.72;;
11328;SDS011;5719;42.714;23.732;2023-07-22T12:26:50;30.13;;;6.63;;
11328;SDS011;5719;42.714;23.732;2023-07-22T12:29:17;24.48;;;5.88;;
11328;SDS011;5719;42.714;23.732;2023-07-22T12:31:44;25.83;;;5.53;;
11328;SDS011;5719;42.714;23.732;2023-07-22T12:34:11;25.88;;;6.20;;
11328;SDS011;5719;42.714;23.732;2023-07-22T12:36:38;32.28;;;6.22;;
11328;SDS011;5719;42.714;23.732;2023-07-22T12:39:05;24.55;;;6.68;;
11328;SDS011;5719;42.714;23.732;2023-07-22T12:41:33;36.72;;;6.68;;
11328;SDS011;5719;42.714;23.732;2023-07-22T12:44:00;35.67;;;7.50;;
11328;SDS011;5719;42.714;23.732;2023-07-22T12:46:28;33.17;;;6.30;;
11328;SDS011;5719;42.714;23.732;2023-07-22T12:48:55;21.65;;;5.93;;
11328;SDS011;5719;42.714;23.732;2023-07-22T12:51:22;36.50;;;6.35;;
11328;SDS011;5719;42.714;23.732;2023-07-22T12:53:49;27.42;;;5.28;;
11328;SDS011;5719;42.714;23.732;2023-07-22T12:56:16;30.67;;;5.40;;
11328;SDS011;5719;42.714;23.732;2023-07-22T12:58:45;34.22;;;6.10;;
11328;SDS011;5719;42.714;23.732;2023-07-22T13:01:14;32.30;;;6.50;;
11328;SDS011;5719;42.714;23.732;2023-07-22T13:03:41;32.45;;;7.25;;
11328;SDS011;5719;42.714;23.732;2023-07-22T13:06:08;30.05;;;6.53;;
11328;SDS011;5719;42.714;23.732;2023-07-22T13:08:35;36.65;;;6.38;;
11328;SDS011;5719;42.714;23.732;2023-07-22T13:11:02;23.13;;;6.00;;
11328;SDS011;5719;42.714;23.732;2023-07-22T13:13:30;30.73;;;6.28;;
11328;SDS011;5719;42.714;23.732;2023-07-22T13:15:58;35.38;;;6.03;;
11328;SDS011;5719;42.714;23.732;2023-07-22T13:18:26;59.05;;;8.18;;
11328;SDS011;5719;42.714;23.732;2023-07-22T13:20:53;33.33;;;6.25;;
11328;SDS011;5719;42.714;23.732;2023-07-22T13:23:19;29.20;;;6.05;;
11328;SDS011;5719;42.714;23.732;2023-07-22T13:25:47;31.30;;;5.72;;
11328;SDS011;5719;42.714;23.732;2023-07-22T13:28:14;32.95;;;6.35;;
11328;SDS011;5719;42.714;23.732;2023-07-22T13:30:41;41.22;;;5.93;;
11328;SDS011;5719;42.714;23.732;2023-07-22T13:33:09;23.65;;;5.97;;
11328;SDS011;5719;42.714;23.732;2023-07-22T13:35:36;24.65;;;5.72;;
11328;SDS011;5719;42.714;23.732;2023-07-22T13:38:03;22.40;;;5.28;;
11328;SDS011;5719;42.714;23.732;2023-07-22T13:40:30;32.30;;;5.75;;
11328;SDS011;5719;42.714;23.732;2023-07-22T13:42:57;28.00;;;6.10;;
11328;SDS011;5719;42.714;23.732;2023-07-22T13:45:25;23.30;;;5.90;;
11328;SDS011;5719;42.714;23.732;2023-07-22T13:47:52;33.42;;;6.78;;
11328;SDS011;5719;42.714;23.732;2023-07-22T13:50:21;32.50;;;6.43;;
11328;SDS011;5719;42.714;23.732;2023-07-22T13:52:48;26.98;;;5.25;;
11328;SDS011;5719;42.714;23.732;2023-07-22T13:55:15;29.70;;;6.15;;
11328;SDS011;5719;42.714;23.732;2023-07-22T13:57:43;31.58;;;5.88;;
11328;SDS011;5719;42.714;23.732;2023-07-22T14:00:10;32.78;;;6.45;;
11328;SDS011;5719;42.714;23.732;2023-07-22T14:02:39;43.42;;;6.65;;
11328;SDS011;5719;42.714;23.732;2023-07-22T14:05:07;25.85;;;5.88;;
11328;SDS011;5719;42.714;23.732;2023-07-22T14:07:36;28.25;;;6.53;;
11328;SDS011;5719;42.714;23.732;2023-07-22T14:10:04;33.25;;;6.18;;
11328;SDS011;5719;42.714;23.732;2023-07-22T14:12:33;32.50;;;5.55;;
11328;SDS011;5719;42.714;23.732;2023-07-22T14:15:00;24.17;;;5.57;;
11328;SDS011;5719;42.714;23.732;2023-07-22T14:17:29;32.03;;;6.15;;
11328;SDS011;5719;42.714;23.732;2023-07-22T14:19:57;28.13;;;6.03;;
11328;SDS011;5719;42.714;23.732;2023-07-22T14:22:24;27.08;;;5.38;;
11328;SDS011;5719;42.714;23.732;2023-07-22T14:24:52;21.90;;;4.90;;
11328;SDS011;5719;42.714;23.732;2023-07-22T14:27:19;20.80;;;4.75;;
11328;SDS011;5719;42.714;23.732;2023-07-22T14:29:47;20.65;;;4.60;;
11328;SDS011;5719;42.714;23.732;2023-07-22T14:32:14;25.67;;;4.45;;
11328;SDS011;5719;42.714;23.732;2023-07-22T14:34:41;17.90;;;4.55;;
11328;SDS011;5719;42.714;23.732;2023-07-22T14:37:08;22.02;;;4.78;;
11328;SDS011;5719;42.714;23.732;2023-07-22T14:39:35;15.77;;;3.97;;
11328;SDS011;5719;42.714;23.732;2023-07-22T14:42:04;19.65;;;4.55;;
11328;SDS011;5719;42.714;23.732;2023-07-22T14:44:31;21.55;;;3.95;;
11328;SDS011;5719;42.714;23.732;2023-07-22T14:46:58;19.13;;;4.43;;